Jeannette, Pennsylvania
Current Conditions -  °F | °C
As of 10:15 PM on Monday 26 Jan 2015 (Local Time) from KLBE Reporting Station
Overcast Overcast  
Wind Chill: 16°   Ceiling: 1000
Heat Index: 25°   Visibility: 10mi
Dew Point: 25°   Wind: 8mph
Humidity: 100%   Direction: 270°W
Pressure: 29.82"   Gusts: NA
Location:  40.33°N, 79.61°W
Report Text: KLBE 270315Z AUTO 27007KT 10SM OVC010 M04/M04 A2982 RMK AO2
Loading
Personal Weather Stations






























Interactive Weather Map New forecast layout! Learn more

10-Day Weather Forecast

Advertisements
Track Severe Weather on mobile